<?xml version="1.0" encoding="UTF-8" standalone="no" ?>
<gpx xmlns="http://www.topografix.com/GPX/1/1" xmlns:xsi="http://www.w3.org/2001/XMLSchema-instance" xsi:schemaLocation="http://www.topografix.com/GPX/1/1 http://www.topografix.com/GPX/1/1/gpx.xsd" version="1.1" creator="VisuGPX - https://www.visugpx.com">
  <metadata>
    <name>Le Corbeley </name>
    <desc><![CDATA[Le Corbeley au départ du parking de l'église de Saint-Thibaud-de-Couz.
Randonnée avec une montée raide et régulière.
A l'approche du sommet il y a un petit ressaut équipé d'un câble fin et mal commode, soyez vigilant à la descente de celui-ci.]]></desc>
  </metadata>
  <trk>
    <name><![CDATA[2018-05-06 10:58:00]]></name>
    <trkseg>
      <trkpt lat="45.5006" lon="5.84504">
        <ele>528.86</ele>
        <time>2018-05-06T07:02:19Z</time>
      </trkpt>
      <trkpt lat="45.5006" lon="5.84505">
        <ele>528.86</ele>
        <time>2018-05-06T07:02:20Z</time>
      </trkpt>
      <trkpt lat="45.50061" lon="5.8449">
        <ele>529.34</ele>
        <time>2018-05-06T07:02:41Z</time>
      </trkpt>
      <trkpt lat="45.50064" lon="5.84488">
        <ele>527.9</ele>
        <time>2018-05-06T07:02:59Z</time>
      </trkpt>
      <trkpt lat="45.50059" lon="5.84482">
        <ele>527.42</ele>
        <time>2018-05-06T07:03:23Z</time>
      </trkpt>
      <trkpt lat="45.50061" lon="5.8448">
        <ele>527.9</ele>
        <time>2018-05-06T07:03:54Z</time>
      </trkpt>
      <trkpt lat="45.50062" lon="5.84484">
        <ele>527.42</ele>
        <time>2018-05-06T07:04:14Z</time>
      </trkpt>
      <trkpt lat="45.5006" lon="5.84483">
        <ele>521.65</ele>
        <time>2018-05-06T07:04:26Z</time>
      </trkpt>
      <trkpt lat="45.5006" lon="5.84483">
        <ele>534.15</ele>
        <time>2018-05-06T07:04:27Z</time>
      </trkpt>
      <trkpt lat="45.5006" lon="5.84483">
        <ele>527.9</ele>
        <time>2018-05-06T07:04:28Z</time>
      </trkpt>
      <trkpt lat="45.50059" lon="5.84485">
        <ele>527.9</ele>
        <time>2018-05-06T07:04:31Z</time>
      </trkpt>
      <trkpt lat="45.50069" lon="5.84495">
        <ele>528.38</ele>
        <time>2018-05-06T07:04:46Z</time>
      </trkpt>
      <trkpt lat="45.50069" lon="5.84496">
        <ele>528.38</ele>
        <time>2018-05-06T07:04:47Z</time>
      </trkpt>
      <trkpt lat="45.50068" lon="5.84503">
        <ele>528.38</ele>
        <time>2018-05-06T07:04:52Z</time>
      </trkpt>
      <trkpt lat="45.50058" lon="5.84514">
        <ele>529.82</ele>
        <time>2018-05-06T07:05:07Z</time>
      </trkpt>
      <trkpt lat="45.50051" lon="5.84518">
        <ele>531.75</ele>
        <time>2018-05-06T07:05:17Z</time>
      </trkpt>
      <trkpt lat="45.50044" lon="5.84525">
        <ele>534.15</ele>
        <time>2018-05-06T07:05:29Z</time>
      </trkpt>
      <trkpt lat="45.50035" lon="5.8453">
        <ele>536.55</ele>
        <time>2018-05-06T07:05:44Z</time>
      </trkpt>
      <trkpt lat="45.50028" lon="5.84538">
        <ele>538.96</ele>
        <time>2018-05-06T07:05:57Z</time>
      </trkpt>
      <trkpt lat="45.50023" lon="5.84551">
        <ele>540.88</ele>
        <time>2018-05-06T07:06:11Z</time>
      </trkpt>
      <trkpt lat="45.50018" lon="5.8456">
        <ele>542.8</ele>
        <time>2018-05-06T07:06:25Z</time>
      </trkpt>
      <trkpt lat="45.50012" lon="5.84567">
        <ele>544.72</ele>
        <time>2018-05-06T07:06:38Z</time>
      </trkpt>
      <trkpt lat="45.50005" lon="5.8458">
        <ele>545.69</ele>
        <time>2018-05-06T07:06:52Z</time>
      </trkpt>
      <trkpt lat="45.50001" lon="5.84588">
        <ele>548.57</ele>
        <time>2018-05-06T07:07:02Z</time>
      </trkpt>
      <trkpt lat="45.49999" lon="5.84602">
        <ele>550.01</ele>
        <time>2018-05-06T07:07:16Z</time>
      </trkpt>
      <trkpt lat="45.5" lon="5.84618">
        <ele>552.9</ele>
        <time>2018-05-06T07:07:30Z</time>
      </trkpt>
      <trkpt lat="45.49994" lon="5.84633">
        <ele>555.3</ele>
        <time>2018-05-06T07:07:44Z</time>
      </trkpt>
      <trkpt lat="45.49987" lon="5.84638">
        <ele>556.74</ele>
        <time>2018-05-06T07:07:56Z</time>
      </trkpt>
      <trkpt lat="45.49982" lon="5.84647">
        <ele>558.66</ele>
        <time>2018-05-06T07:08:08Z</time>
      </trkpt>
      <trkpt lat="45.49971" lon="5.84659">
        <ele>561.07</ele>
        <time>2018-05-06T07:08:22Z</time>
      </trkpt>
      <trkpt lat="45.49965" lon="5.84671">
        <ele>563.47</ele>
        <time>2018-05-06T07:08:37Z</time>
      </trkpt>
      <trkpt lat="45.4996" lon="5.84683">
        <ele>564.91</ele>
        <time>2018-05-06T07:08:49Z</time>
      </trkpt>
      <trkpt lat="45.49956" lon="5.84695">
        <ele>566.83</ele>
        <time>2018-05-06T07:09:01Z</time>
      </trkpt>
      <trkpt lat="45.49947" lon="5.84699">
        <ele>569.72</ele>
        <time>2018-05-06T07:09:17Z</time>
      </trkpt>
      <trkpt lat="45.4993" lon="5.84697">
        <ele>573.08</ele>
        <time>2018-05-06T07:09:36Z</time>
      </trkpt>
      <trkpt lat="45.49921" lon="5.84694">
        <ele>575.97</ele>
        <time>2018-05-06T07:09:51Z</time>
      </trkpt>
      <trkpt lat="45.49912" lon="5.8469">
        <ele>579.33</ele>
        <time>2018-05-06T07:10:06Z</time>
      </trkpt>
      <trkpt lat="45.49893" lon="5.84685">
        <ele>582.22</ele>
        <time>2018-05-06T07:10:24Z</time>
      </trkpt>
      <trkpt lat="45.49886" lon="5.84684">
        <ele>584.14</ele>
        <time>2018-05-06T07:10:38Z</time>
      </trkpt>
      <trkpt lat="45.49877" lon="5.84687">
        <ele>587.5</ele>
        <time>2018-05-06T07:10:53Z</time>
      </trkpt>
      <trkpt lat="45.49867" lon="5.84686">
        <ele>589.91</ele>
        <time>2018-05-06T07:11:08Z</time>
      </trkpt>
      <trkpt lat="45.49849" lon="5.84679">
        <ele>592.79</ele>
        <time>2018-05-06T07:11:24Z</time>
      </trkpt>
      <trkpt lat="45.49836" lon="5.84672">
        <ele>595.67</ele>
        <time>2018-05-06T07:11:40Z</time>
      </trkpt>
      <trkpt lat="45.49827" lon="5.84667">
        <ele>599.52</ele>
        <time>2018-05-06T07:11:50Z</time>
      </trkpt>
      <trkpt lat="45.49816" lon="5.84662">
        <ele>601.44</ele>
        <time>2018-05-06T07:12:06Z</time>
      </trkpt>
      <trkpt lat="45.49808" lon="5.8466">
        <ele>603.36</ele>
        <time>2018-05-06T07:12:18Z</time>
      </trkpt>
      <trkpt lat="45.49814" lon="5.84672">
        <ele>606.25</ele>
        <time>2018-05-06T07:12:35Z</time>
      </trkpt>
      <trkpt lat="45.49821" lon="5.84686">
        <ele>609.13</ele>
        <time>2018-05-06T07:12:51Z</time>
      </trkpt>
      <trkpt lat="45.4983" lon="5.84697">
        <ele>611.54</ele>
        <time>2018-05-06T07:13:09Z</time>
      </trkpt>
      <trkpt lat="45.49831" lon="5.84698">
        <ele>611.54</ele>
        <time>2018-05-06T07:13:11Z</time>
      </trkpt>
      <trkpt lat="45.49836" lon="5.84704">
        <ele>612.5</ele>
        <time>2018-05-06T07:13:19Z</time>
      </trkpt>
      <trkpt lat="45.49845" lon="5.8472">
        <ele>615.86</ele>
        <time>2018-05-06T07:13:36Z</time>
      </trkpt>
      <trkpt lat="45.49848" lon="5.84721">
        <ele>616.34</ele>
        <time>2018-05-06T07:13:42Z</time>
      </trkpt>
      <trkpt lat="45.49853" lon="5.84725">
        <ele>617.78</ele>
        <time>2018-05-06T07:13:49Z</time>
      </trkpt>
      <trkpt lat="45.49859" lon="5.84731">
        <ele>620.19</ele>
        <time>2018-05-06T07:14:02Z</time>
      </trkpt>
      <trkpt lat="45.49863" lon="5.84734">
        <ele>621.63</ele>
        <time>2018-05-06T07:14:07Z</time>
      </trkpt>
      <trkpt lat="45.49875" lon="5.84741">
        <ele>622.59</ele>
        <time>2018-05-06T07:14:20Z</time>
      </trkpt>
      <trkpt lat="45.49877" lon="5.84742">
        <ele>624.03</ele>
        <time>2018-05-06T07:14:24Z</time>
      </trkpt>
      <trkpt lat="45.49888" lon="5.84748">
        <ele>625.96</ele>
        <time>2018-05-06T07:14:38Z</time>
      </trkpt>
      <trkpt lat="45.49901" lon="5.84754">
        <ele>626.92</ele>
        <time>2018-05-06T07:14:51Z</time>
      </trkpt>
      <trkpt lat="45.49914" lon="5.84759">
        <ele>628.36</ele>
        <time>2018-05-06T07:15:03Z</time>
      </trkpt>
      <trkpt lat="45.49925" lon="5.84762">
        <ele>630.28</ele>
        <time>2018-05-06T07:15:15Z</time>
      </trkpt>
      <trkpt lat="45.49935" lon="5.84766">
        <ele>632.2</ele>
        <time>2018-05-06T07:15:26Z</time>
      </trkpt>
      <trkpt lat="45.49947" lon="5.84771">
        <ele>635.09</ele>
        <time>2018-05-06T07:15:40Z</time>
      </trkpt>
      <trkpt lat="45.49958" lon="5.84777">
        <ele>636.53</ele>
        <time>2018-05-06T07:15:50Z</time>
      </trkpt>
      <trkpt lat="45.49968" lon="5.84791">
        <ele>638.45</ele>
        <time>2018-05-06T07:16:04Z</time>
      </trkpt>
      <trkpt lat="45.49973" lon="5.84801">
        <ele>641.34</ele>
        <time>2018-05-06T07:16:15Z</time>
      </trkpt>
      <trkpt lat="45.49983" lon="5.84812">
        <ele>644.22</ele>
        <time>2018-05-06T07:16:31Z</time>
      </trkpt>
      <trkpt lat="45.49983" lon="5.84816">
        <ele>644.22</ele>
        <time>2018-05-06T07:16:34Z</time>
      </trkpt>
      <trkpt lat="45.49984" lon="5.84818">
        <ele>644.7</ele>
        <time>2018-05-06T07:16:36Z</time>
      </trkpt>
      <trkpt lat="45.4999" lon="5.84835">
        <ele>645.18</ele>
        <time>2018-05-06T07:16:49Z</time>
      </trkpt>
      <trkpt lat="45.49991" lon="5.84846">
        <ele>648.55</ele>
        <time>2018-05-06T07:17:01Z</time>
      </trkpt>
      <trkpt lat="45.49991" lon="5.84858">
        <ele>649.51</ele>
        <time>2018-05-06T07:17:16Z</time>
      </trkpt>
      <trkpt lat="45.49994" lon="5.84865">
        <ele>653.35</ele>
        <time>2018-05-06T07:17:29Z</time>
      </trkpt>
      <trkpt lat="45.49998" lon="5.84879">
        <ele>656.72</ele>
        <time>2018-05-06T07:17:43Z</time>
      </trkpt>
      <trkpt lat="45.50005" lon="5.84908">
        <ele>659.12</ele>
        <time>2018-05-06T07:18:00Z</time>
      </trkpt>
      <trkpt lat="45.50001" lon="5.84919">
        <ele>662.01</ele>
        <time>2018-05-06T07:18:12Z</time>
      </trkpt>
      <trkpt lat="45.49993" lon="5.84938">
        <ele>665.37</ele>
        <time>2018-05-06T07:18:30Z</time>
      </trkpt>
      <trkpt lat="45.4999" lon="5.84955">
        <ele>668.25</ele>
        <time>2018-05-06T07:18:48Z</time>
      </trkpt>
      <trkpt lat="45.49994" lon="5.84972">
        <ele>672.58</ele>
        <time>2018-05-06T07:19:06Z</time>
      </trkpt>
      <trkpt lat="45.49998" lon="5.85005">
        <ele>674.98</ele>
        <time>2018-05-06T07:19:25Z</time>
      </trkpt>
      <trkpt lat="45.49999" lon="5.8502">
        <ele>678.35</ele>
        <time>2018-05-06T07:19:35Z</time>
      </trkpt>
      <trkpt lat="45.50002" lon="5.85047">
        <ele>681.71</ele>
        <time>2018-05-06T07:19:52Z</time>
      </trkpt>
      <trkpt lat="45.50004" lon="5.8506">
        <ele>685.56</ele>
        <time>2018-05-06T07:20:08Z</time>
      </trkpt>
      <trkpt lat="45.50004" lon="5.85069">
        <ele>687.96</ele>
        <time>2018-05-06T07:20:25Z</time>
      </trkpt>
      <trkpt lat="45.50005" lon="5.85077">
        <ele>691.33</ele>
        <time>2018-05-06T07:20:38Z</time>
      </trkpt>
      <trkpt lat="45.50005" lon="5.85079">
        <ele>691.33</ele>
        <time>2018-05-06T07:20:41Z</time>
      </trkpt>
      <trkpt lat="45.50005" lon="5.85087">
        <ele>693.25</ele>
        <time>2018-05-06T07:20:46Z</time>
      </trkpt>
      <trkpt lat="45.50003" lon="5.85096">
        <ele>695.17</ele>
        <time>2018-05-06T07:20:59Z</time>
      </trkpt>
      <trkpt lat="45.50002" lon="5.85099">
        <ele>695.17</ele>
        <time>2018-05-06T07:21:02Z</time>
      </trkpt>
      <trkpt lat="45.50003" lon="5.85104">
        <ele>698.05</ele>
        <time>2018-05-06T07:21:16Z</time>
      </trkpt>
      <trkpt lat="45.50004" lon="5.85106">
        <ele>699.02</ele>
        <time>2018-05-06T07:21:20Z</time>
      </trkpt>
      <trkpt lat="45.50005" lon="5.85112">
        <ele>699.98</ele>
        <time>2018-05-06T07:21:26Z</time>
      </trkpt>
      <trkpt lat="45.50002" lon="5.85114">
        <ele>702.38</ele>
        <time>2018-05-06T07:21:30Z</time>
      </trkpt>
      <trkpt lat="45.4999" lon="5.85114">
        <ele>704.3</ele>
        <time>2018-05-06T07:21:41Z</time>
      </trkpt>
      <trkpt lat="45.49969" lon="5.8511">
        <ele>705.75</ele>
        <time>2018-05-06T07:21:53Z</time>
      </trkpt>
      <trkpt lat="45.49957" lon="5.85114">
        <ele>707.19</ele>
        <time>2018-05-06T07:22:04Z</time>
      </trkpt>
      <trkpt lat="45.49956" lon="5.85119">
        <ele>709.59</ele>
        <time>2018-05-06T07:22:10Z</time>
      </trkpt>
      <trkpt lat="45.49955" lon="5.85129">
        <ele>710.07</ele>
        <time>2018-05-06T07:22:24Z</time>
      </trkpt>
      <trkpt lat="45.49954" lon="5.85138">
        <ele>710.55</ele>
        <time>2018-05-06T07:22:33Z</time>
      </trkpt>
      <trkpt lat="45.49957" lon="5.85146">
        <ele>715.36</ele>
        <time>2018-05-06T07:22:48Z</time>
      </trkpt>
      <trkpt lat="45.49956" lon="5.85151">
        <ele>717.28</ele>
        <time>2018-05-06T07:22:54Z</time>
      </trkpt>
      <trkpt lat="45.4996" lon="5.85155">
        <ele>717.76</ele>
        <time>2018-05-06T07:23:07Z</time>
      </trkpt>
      <trkpt lat="45.49961" lon="5.85161">
        <ele>721.13</ele>
        <time>2018-05-06T07:23:15Z</time>
      </trkpt>
      <trkpt lat="45.49964" lon="5.85165">
        <ele>724.01</ele>
        <time>2018-05-06T07:23:34Z</time>
      </trkpt>
      <trkpt lat="45.49966" lon="5.85167">
        <ele>726.89</ele>
        <time>2018-05-06T07:23:46Z</time>
      </trkpt>
      <trkpt lat="45.49967" lon="5.85158">
        <ele>729.3</ele>
        <time>2018-05-06T07:24:00Z</time>
      </trkpt>
      <trkpt lat="45.49988" lon="5.85159">
        <ele>729.3</ele>
        <time>2018-05-06T07:24:05Z</time>
      </trkpt>
      <trkpt lat="45.49983" lon="5.85174">
        <ele>732.66</ele>
        <time>2018-05-06T07:24:19Z</time>
      </trkpt>
      <trkpt lat="45.4998" lon="5.85183">
        <ele>735.07</ele>
        <time>2018-05-06T07:24:31Z</time>
      </trkpt>
      <trkpt lat="45.49976" lon="5.85192">
        <ele>738.43</ele>
        <time>2018-05-06T07:24:47Z</time>
      </trkpt>
      <trkpt lat="45.4997" lon="5.85197">
        <ele>740.35</ele>
        <time>2018-05-06T07:24:59Z</time>
      </trkpt>
      <trkpt lat="45.49967" lon="5.85199">
        <ele>740.83</ele>
        <time>2018-05-06T07:25:03Z</time>
      </trkpt>
      <trkpt lat="45.49962" lon="5.85205">
        <ele>741.79</ele>
        <time>2018-05-06T07:25:13Z</time>
      </trkpt>
      <trkpt lat="45.49953" lon="5.85205">
        <ele>743.24</ele>
        <time>2018-05-06T07:25:25Z</time>
      </trkpt>
      <trkpt lat="45.49948" lon="5.85206">
        <ele>744.68</ele>
        <time>2018-05-06T07:25:36Z</time>
      </trkpt>
      <trkpt lat="45.49939" lon="5.85205">
        <ele>747.56</ele>
        <time>2018-05-06T07:25:51Z</time>
      </trkpt>
      <trkpt lat="45.49929" lon="5.85199">
        <ele>750.93</ele>
        <time>2018-05-06T07:26:07Z</time>
      </trkpt>
      <trkpt lat="45.49921" lon="5.85197">
        <ele>753.81</ele>
        <time>2018-05-06T07:26:22Z</time>
      </trkpt>
      <trkpt lat="45.4992" lon="5.85194">
        <ele>753.81</ele>
        <time>2018-05-06T07:26:26Z</time>
      </trkpt>
      <trkpt lat="45.49908" lon="5.85195">
        <ele>757.18</ele>
        <time>2018-05-06T07:26:40Z</time>
      </trkpt>
      <trkpt lat="45.49902" lon="5.85194">
        <ele>757.66</ele>
        <time>2018-05-06T07:26:53Z</time>
      </trkpt>
      <trkpt lat="45.49886" lon="5.85189">
        <ele>759.58</ele>
        <time>2018-05-06T07:27:10Z</time>
      </trkpt>
      <trkpt lat="45.49874" lon="5.85189">
        <ele>762.46</ele>
        <time>2018-05-06T07:27:27Z</time>
      </trkpt>
      <trkpt lat="45.4987" lon="5.85195">
        <ele>765.35</ele>
        <time>2018-05-06T07:27:42Z</time>
      </trkpt>
      <trkpt lat="45.49862" lon="5.85202">
        <ele>767.27</ele>
        <time>2018-05-06T07:27:55Z</time>
      </trkpt>
      <trkpt lat="45.49861" lon="5.85232">
        <ele>770.63</ele>
        <time>2018-05-06T07:28:11Z</time>
      </trkpt>
      <trkpt lat="45.49859" lon="5.85248">
        <ele>773.04</ele>
        <time>2018-05-06T07:28:29Z</time>
      </trkpt>
      <trkpt lat="45.49855" lon="5.8526">
        <ele>775.44</ele>
        <time>2018-05-06T07:28:46Z</time>
      </trkpt>
      <trkpt lat="45.49853" lon="5.85273">
        <ele>777.84</ele>
        <time>2018-05-06T07:29:00Z</time>
      </trkpt>
      <trkpt lat="45.49851" lon="5.85276">
        <ele>779.29</ele>
        <time>2018-05-06T07:29:04Z</time>
      </trkpt>
      <trkpt lat="45.49849" lon="5.85286">
        <ele>781.69</ele>
        <time>2018-05-06T07:29:16Z</time>
      </trkpt>
      <trkpt lat="45.49847" lon="5.85295">
        <ele>785.53</ele>
        <time>2018-05-06T07:29:30Z</time>
      </trkpt>
      <trkpt lat="45.49846" lon="5.85307">
        <ele>788.42</ele>
        <time>2018-05-06T07:29:44Z</time>
      </trkpt>
      <trkpt lat="45.49842" lon="5.85316">
        <ele>790.34</ele>
        <time>2018-05-06T07:30:00Z</time>
      </trkpt>
      <trkpt lat="45.49833" lon="5.85318">
        <ele>793.71</ele>
        <time>2018-05-06T07:30:13Z</time>
      </trkpt>
      <trkpt lat="45.49837" lon="5.85315">
        <ele>797.55</ele>
        <time>2018-05-06T07:30:29Z</time>
      </trkpt>
      <trkpt lat="45.49839" lon="5.85315">
        <ele>800.44</ele>
        <time>2018-05-06T07:30:44Z</time>
      </trkpt>
      <trkpt lat="45.49851" lon="5.85309">
        <ele>803.32</ele>
        <time>2018-05-06T07:31:00Z</time>
      </trkpt>
      <trkpt lat="45.49864" lon="5.85314">
        <ele>806.68</ele>
        <time>2018-05-06T07:31:15Z</time>
      </trkpt>
      <trkpt lat="45.49879" lon="5.85308">
        <ele>810.05</ele>
        <time>2018-05-06T07:31:33Z</time>
      </trkpt>
      <trkpt lat="45.49881" lon="5.85309">
        <ele>811.97</ele>
        <time>2018-05-06T07:31:45Z</time>
      </trkpt>
      <trkpt lat="45.4988" lon="5.85315">
        <ele>814.85</ele>
        <time>2018-05-06T07:31:57Z</time>
      </trkpt>
      <trkpt lat="45.49878" lon="5.85318">
        <ele>816.78</ele>
        <time>2018-05-06T07:32:09Z</time>
      </trkpt>
      <trkpt lat="45.49875" lon="5.8532">
        <ele>819.66</ele>
        <time>2018-05-06T07:32:21Z</time>
      </trkpt>
      <trkpt lat="45.49871" lon="5.85323">
        <ele>823.03</ele>
        <time>2018-05-06T07:32:33Z</time>
      </trkpt>
      <trkpt lat="45.49871" lon="5.85329">
        <ele>825.43</ele>
        <time>2018-05-06T07:32:45Z</time>
      </trkpt>
      <trkpt lat="45.49869" lon="5.85344">
        <ele>828.31</ele>
        <time>2018-05-06T07:32:58Z</time>
      </trkpt>
      <trkpt lat="45.49869" lon="5.85346">
        <ele>828.79</ele>
        <time>2018-05-06T07:32:59Z</time>
      </trkpt>
      <trkpt lat="45.49865" lon="5.85361">
        <ele>831.2</ele>
        <time>2018-05-06T07:33:12Z</time>
      </trkpt>
      <trkpt lat="45.49863" lon="5.85373">
        <ele>834.08</ele>
        <time>2018-05-06T07:33:22Z</time>
      </trkpt>
      <trkpt lat="45.49857" lon="5.85384">
        <ele>836.48</ele>
        <time>2018-05-06T07:33:36Z</time>
      </trkpt>
      <trkpt lat="45.49853" lon="5.85393">
        <ele>839.37</ele>
        <time>2018-05-06T07:33:47Z</time>
      </trkpt>
      <trkpt lat="45.49854" lon="5.85403">
        <ele>843.21</ele>
        <time>2018-05-06T07:34:00Z</time>
      </trkpt>
      <trkpt lat="45.49851" lon="5.85416">
        <ele>846.1</ele>
        <time>2018-05-06T07:34:13Z</time>
      </trkpt>
      <trkpt lat="45.49852" lon="5.85417">
        <ele>845.62</ele>
        <time>2018-05-06T07:34:14Z</time>
      </trkpt>
      <trkpt lat="45.49852" lon="5.85425">
        <ele>849.46</ele>
        <time>2018-05-06T07:34:27Z</time>
      </trkpt>
      <trkpt lat="45.49853" lon="5.85435">
        <ele>852.35</ele>
        <time>2018-05-06T07:34:40Z</time>
      </trkpt>
      <trkpt lat="45.49852" lon="5.85444">
        <ele>855.23</ele>
        <time>2018-05-06T07:34:53Z</time>
      </trkpt>
      <trkpt lat="45.49852" lon="5.85458">
        <ele>859.08</ele>
        <time>2018-05-06T07:35:07Z</time>
      </trkpt>
      <trkpt lat="45.49854" lon="5.85473">
        <ele>861.96</ele>
        <time>2018-05-06T07:35:21Z</time>
      </trkpt>
      <trkpt lat="45.49856" lon="5.8549">
        <ele>864.84</ele>
        <time>2018-05-06T07:35:35Z</time>
      </trkpt>
      <trkpt lat="45.49857" lon="5.85494">
        <ele>866.77</ele>
        <time>2018-05-06T07:35:42Z</time>
      </trkpt>
      <trkpt lat="45.49861" lon="5.8551">
        <ele>870.13</ele>
        <time>2018-05-06T07:35:58Z</time>
      </trkpt>
      <trkpt lat="45.49861" lon="5.85518">
        <ele>873.5</ele>
        <time>2018-05-06T07:36:12Z</time>
      </trkpt>
      <trkpt lat="45.4986" lon="5.85518">
        <ele>873.5</ele>
        <time>2018-05-06T07:36:13Z</time>
      </trkpt>
      <trkpt lat="45.49862" lon="5.85528">
        <ele>876.86</ele>
        <time>2018-05-06T07:36:27Z</time>
      </trkpt>
      <trkpt lat="45.49859" lon="5.85538">
        <ele>880.22</ele>
        <time>2018-05-06T07:36:43Z</time>
      </trkpt>
      <trkpt lat="45.49861" lon="5.85545">
        <ele>883.11</ele>
        <time>2018-05-06T07:36:53Z</time>
      </trkpt>
      <trkpt lat="45.49857" lon="5.85561">
        <ele>885.03</ele>
        <time>2018-05-06T07:37:06Z</time>
      </trkpt>
      <trkpt lat="45.49858" lon="5.85576">
        <ele>888.4</ele>
        <time>2018-05-06T07:37:21Z</time>
      </trkpt>
      <trkpt lat="45.49863" lon="5.85592">
        <ele>891.28</ele>
        <time>2018-05-06T07:37:33Z</time>
      </trkpt>
      <trkpt lat="45.49866" lon="5.85607">
        <ele>894.64</ele>
        <time>2018-05-06T07:37:46Z</time>
      </trkpt>
      <trkpt lat="45.49864" lon="5.85621">
        <ele>897.53</ele>
        <time>2018-05-06T07:37:58Z</time>
      </trkpt>
      <trkpt lat="45.49868" lon="5.85634">
        <ele>900.89</ele>
        <time>2018-05-06T07:38:14Z</time>
      </trkpt>
      <trkpt lat="45.49869" lon="5.85645">
        <ele>904.26</ele>
        <time>2018-05-06T07:38:27Z</time>
      </trkpt>
      <trkpt lat="45.49868" lon="5.85656">
        <ele>906.66</ele>
        <time>2018-05-06T07:38:41Z</time>
      </trkpt>
      <trkpt lat="45.49869" lon="5.85664">
        <ele>909.54</ele>
        <time>2018-05-06T07:38:51Z</time>
      </trkpt>
      <trkpt lat="45.49872" lon="5.85674">
        <ele>912.91</ele>
        <time>2018-05-06T07:39:02Z</time>
      </trkpt>
      <trkpt lat="45.49874" lon="5.85686">
        <ele>916.27</ele>
        <time>2018-05-06T07:39:17Z</time>
      </trkpt>
      <trkpt lat="45.49875" lon="5.85695">
        <ele>919.16</ele>
        <time>2018-05-06T07:39:29Z</time>
      </trkpt>
      <trkpt lat="45.49877" lon="5.85703">
        <ele>922.52</ele>
        <time>2018-05-06T07:39:42Z</time>
      </trkpt>
      <trkpt lat="45.49883" lon="5.85711">
        <ele>925.89</ele>
        <time>2018-05-06T07:39:56Z</time>
      </trkpt>
      <trkpt lat="45.4988" lon="5.85719">
        <ele>928.77</ele>
        <time>2018-05-06T07:40:10Z</time>
      </trkpt>
      <trkpt lat="45.49881" lon="5.85733">
        <ele>932.14</ele>
        <time>2018-05-06T07:40:23Z</time>
      </trkpt>
      <trkpt lat="45.49886" lon="5.85744">
        <ele>935.02</ele>
        <time>2018-05-06T07:40:36Z</time>
      </trkpt>
      <trkpt lat="45.49891" lon="5.85757">
        <ele>938.38</ele>
        <time>2018-05-06T07:40:51Z</time>
      </trkpt>
      <trkpt lat="45.49887" lon="5.85763">
        <ele>939.83</ele>
        <time>2018-05-06T07:40:59Z</time>
      </trkpt>
      <trkpt lat="45.49882" lon="5.85775">
        <ele>943.19</ele>
        <time>2018-05-06T07:41:13Z</time>
      </trkpt>
      <trkpt lat="45.49885" lon="5.8578">
        <ele>946.07</ele>
        <time>2018-05-06T07:41:25Z</time>
      </trkpt>
      <trkpt lat="45.49881" lon="5.85793">
        <ele>949.44</ele>
        <time>2018-05-06T07:41:40Z</time>
      </trkpt>
      <trkpt lat="45.4988" lon="5.85798">
        <ele>952.32</ele>
        <time>2018-05-06T07:41:52Z</time>
      </trkpt>
      <trkpt lat="45.49883" lon="5.85803">
        <ele>955.69</ele>
        <time>2018-05-06T07:42:06Z</time>
      </trkpt>
      <trkpt lat="45.49881" lon="5.85813">
        <ele>959.05</ele>
        <time>2018-05-06T07:42:20Z</time>
      </trkpt>
      <trkpt lat="45.49888" lon="5.85823">
        <ele>961.46</ele>
        <time>2018-05-06T07:42:32Z</time>
      </trkpt>
      <trkpt lat="45.49898" lon="5.85833">
        <ele>964.82</ele>
        <time>2018-05-06T07:42:44Z</time>
      </trkpt>
      <trkpt lat="45.49906" lon="5.85839">
        <ele>965.78</ele>
        <time>2018-05-06T07:42:50Z</time>
      </trkpt>
      <trkpt lat="45.49911" lon="5.85858">
        <ele>968.67</ele>
        <time>2018-05-06T07:43:02Z</time>
      </trkpt>
      <trkpt lat="45.49908" lon="5.85875">
        <ele>971.07</ele>
        <time>2018-05-06T07:43:15Z</time>
      </trkpt>
      <trkpt lat="45.49904" lon="5.85883">
        <ele>972.51</ele>
        <time>2018-05-06T07:43:24Z</time>
      </trkpt>
      <trkpt lat="45.49895" lon="5.85899">
        <ele>974.91</ele>
        <time>2018-05-06T07:43:37Z</time>
      </trkpt>
      <trkpt lat="45.49886" lon="5.85909">
        <ele>978.28</ele>
        <time>2018-05-06T07:43:52Z</time>
      </trkpt>
      <trkpt lat="45.49878" lon="5.85914">
        <ele>981.64</ele>
        <time>2018-05-06T07:44:06Z</time>
      </trkpt>
      <trkpt lat="45.49874" lon="5.85931">
        <ele>985.01</ele>
        <time>2018-05-06T07:44:21Z</time>
      </trkpt>
      <trkpt lat="45.49864" lon="5.85953">
        <ele>987.89</ele>
        <time>2018-05-06T07:44:37Z</time>
      </trkpt>
      <trkpt lat="45.49864" lon="5.85959">
        <ele>990.78</ele>
        <time>2018-05-06T07:44:47Z</time>
      </trkpt>
      <trkpt lat="45.49852" lon="5.85964">
        <ele>993.18</ele>
        <time>2018-05-06T07:45:02Z</time>
      </trkpt>
      <trkpt lat="45.49848" lon="5.85972">
        <ele>995.58</ele>
        <time>2018-05-06T07:45:14Z</time>
      </trkpt>
      <trkpt lat="45.49844" lon="5.85982">
        <ele>998.47</ele>
        <time>2018-05-06T07:45:28Z</time>
      </trkpt>
      <trkpt lat="45.49842" lon="5.85985">
        <ele>999.43</ele>
        <time>2018-05-06T07:45:34Z</time>
      </trkpt>
      <trkpt lat="45.4984" lon="5.85992">
        <ele>1002.79</ele>
        <time>2018-05-06T07:45:49Z</time>
      </trkpt>
      <trkpt lat="45.49842" lon="5.85997">
        <ele>1005.2</ele>
        <time>2018-05-06T07:46:02Z</time>
      </trkpt>
      <trkpt lat="45.49825" lon="5.86021">
        <ele>1008.08</ele>
        <time>2018-05-06T07:46:17Z</time>
      </trkpt>
      <trkpt lat="45.49827" lon="5.86026">
        <ele>1010.96</ele>
        <time>2018-05-06T07:46:33Z</time>
      </trkpt>
      <trkpt lat="45.49835" lon="5.86033">
        <ele>1014.33</ele>
        <time>2018-05-06T07:46:46Z</time>
      </trkpt>
      <trkpt lat="45.49843" lon="5.86051">
        <ele>1016.25</ele>
        <time>2018-05-06T07:47:00Z</time>
      </trkpt>
      <trkpt lat="45.49852" lon="5.86062">
        <ele>1019.62</ele>
        <time>2018-05-06T07:47:14Z</time>
      </trkpt>
      <trkpt lat="45.49851" lon="5.86059">
        <ele>1022.98</ele>
        <time>2018-05-06T07:47:28Z</time>
      </trkpt>
      <trkpt lat="45.49835" lon="5.86055">
        <ele>1024.42</ele>
        <time>2018-05-06T07:47:40Z</time>
      </trkpt>
      <trkpt lat="45.49815" lon="5.86053">
        <ele>1026.83</ele>
        <time>2018-05-06T07:47:55Z</time>
      </trkpt>
      <trkpt lat="45.49806" lon="5.86052">
        <ele>1029.71</ele>
        <time>2018-05-06T07:48:04Z</time>
      </trkpt>
      <trkpt lat="45.49804" lon="5.8605">
        <ele>1032.59</ele>
        <time>2018-05-06T07:48:19Z</time>
      </trkpt>
      <trkpt lat="45.49807" lon="5.86056">
        <ele>1035</ele>
        <time>2018-05-06T07:48:32Z</time>
      </trkpt>
      <trkpt lat="45.49812" lon="5.86068">
        <ele>1037.4</ele>
        <time>2018-05-06T07:48:45Z</time>
      </trkpt>
      <trkpt lat="45.49818" lon="5.86081">
        <ele>1040.76</ele>
        <time>2018-05-06T07:48:59Z</time>
      </trkpt>
      <trkpt lat="45.49821" lon="5.86087">
        <ele>1041.73</ele>
        <time>2018-05-06T07:49:04Z</time>
      </trkpt>
      <trkpt lat="45.49822" lon="5.8609">
        <ele>1042.69</ele>
        <time>2018-05-06T07:49:08Z</time>
      </trkpt>
      <trkpt lat="45.49815" lon="5.861">
        <ele>1045.57</ele>
        <time>2018-05-06T07:49:23Z</time>
      </trkpt>
      <trkpt lat="45.49823" lon="5.86104">
        <ele>1047.49</ele>
        <time>2018-05-06T07:49:34Z</time>
      </trkpt>
      <trkpt lat="45.49819" lon="5.86119">
        <ele>1049.9</ele>
        <time>2018-05-06T07:49:47Z</time>
      </trkpt>
      <trkpt lat="45.49819" lon="5.86124">
        <ele>1052.3</ele>
        <time>2018-05-06T07:50:01Z</time>
      </trkpt>
      <trkpt lat="45.49819" lon="5.86126">
        <ele>1053.26</ele>
        <time>2018-05-06T07:50:04Z</time>
      </trkpt>
      <trkpt lat="45.49821" lon="5.86142">
        <ele>1055.18</ele>
        <time>2018-05-06T07:50:16Z</time>
      </trkpt>
      <trkpt lat="45.49823" lon="5.86152">
        <ele>1056.63</ele>
        <time>2018-05-06T07:50:28Z</time>
      </trkpt>
      <trkpt lat="45.49822" lon="5.86164">
        <ele>1060.47</ele>
        <time>2018-05-06T07:50:39Z</time>
      </trkpt>
      <trkpt lat="45.49831" lon="5.86172">
        <ele>1062.39</ele>
        <time>2018-05-06T07:50:51Z</time>
      </trkpt>
      <trkpt lat="45.49835" lon="5.8618">
        <ele>1063.36</ele>
        <time>2018-05-06T07:51:01Z</time>
      </trkpt>
      <trkpt lat="45.49836" lon="5.8619">
        <ele>1065.28</ele>
        <time>2018-05-06T07:51:11Z</time>
      </trkpt>
      <trkpt lat="45.49834" lon="5.86204">
        <ele>1067.68</ele>
        <time>2018-05-06T07:51:23Z</time>
      </trkpt>
      <trkpt lat="45.49834" lon="5.86218">
        <ele>1069.6</ele>
        <time>2018-05-06T07:51:36Z</time>
      </trkpt>
      <trkpt lat="45.49834" lon="5.86226">
        <ele>1072.97</ele>
        <time>2018-05-06T07:51:49Z</time>
      </trkpt>
      <trkpt lat="45.49833" lon="5.86235">
        <ele>1075.37</ele>
        <time>2018-05-06T07:52:02Z</time>
      </trkpt>
      <trkpt lat="45.49834" lon="5.86245">
        <ele>1077.78</ele>
        <time>2018-05-06T07:52:14Z</time>
      </trkpt>
      <trkpt lat="45.49832" lon="5.86256">
        <ele>1079.7</ele>
        <time>2018-05-06T07:52:26Z</time>
      </trkpt>
      <trkpt lat="45.49823" lon="5.86262">
        <ele>1083.06</ele>
        <time>2018-05-06T07:52:42Z</time>
      </trkpt>
      <trkpt lat="45.4982" lon="5.86253">
        <ele>1086.43</ele>
        <time>2018-05-06T07:52:59Z</time>
      </trkpt>
      <trkpt lat="45.49832" lon="5.86259">
        <ele>1089.31</ele>
        <time>2018-05-06T07:53:13Z</time>
      </trkpt>
      <trkpt lat="45.49836" lon="5.86266">
        <ele>1092.2</ele>
        <time>2018-05-06T07:53:26Z</time>
      </trkpt>
      <trkpt lat="45.49834" lon="5.86269">
        <ele>1093.16</ele>
        <time>2018-05-06T07:53:32Z</time>
      </trkpt>
      <trkpt lat="45.4983" lon="5.86272">
        <ele>1096.04</ele>
        <time>2018-05-06T07:53:45Z</time>
      </trkpt>
      <trkpt lat="45.49829" lon="5.86273">
        <ele>1098.44</ele>
        <time>2018-05-06T07:53:58Z</time>
      </trkpt>
      <trkpt lat="45.49826" lon="5.8628">
        <ele>1100.85</ele>
        <time>2018-05-06T07:54:11Z</time>
      </trkpt>
      <trkpt lat="45.49811" lon="5.86282">
        <ele>1104.69</ele>
        <time>2018-05-06T07:54:26Z</time>
      </trkpt>
      <trkpt lat="45.49809" lon="5.86289">
        <ele>1106.61</ele>
        <time>2018-05-06T07:54:38Z</time>
      </trkpt>
      <trkpt lat="45.49802" lon="5.86315">
        <ele>1109.98</ele>
        <time>2018-05-06T07:54:51Z</time>
      </trkpt>
      <trkpt lat="45.49803" lon="5.86329">
        <ele>1111.9</ele>
        <time>2018-05-06T07:55:08Z</time>
      </trkpt>
      <trkpt lat="45.49806" lon="5.86339">
        <ele>1114.79</ele>
        <time>2018-05-06T07:55:22Z</time>
      </trkpt>
      <trkpt lat="45.49809" lon="5.86343">
        <ele>1118.15</ele>
        <time>2018-05-06T07:55:40Z</time>
      </trkpt>
      <trkpt lat="45.4981" lon="5.86337">
        <ele>1121.03</ele>
        <time>2018-05-06T07:55:55Z</time>
      </trkpt>
      <trkpt lat="45.4981" lon="5.86336">
        <ele>1121.03</ele>
        <time>2018-05-06T07:55:57Z</time>
      </trkpt>
      <trkpt lat="45.49814" lon="5.86318">
        <ele>1124.4</ele>
        <time>2018-05-06T07:56:13Z</time>
      </trkpt>
      <trkpt lat="45.49806" lon="5.86308">
        <ele>1127.28</ele>
        <time>2018-05-06T07:56:27Z</time>
      </trkpt>
      <trkpt lat="45.49799" lon="5.86292">
        <ele>1130.65</ele>
        <time>2018-05-06T07:56:41Z</time>
      </trkpt>
      <trkpt lat="45.49794" lon="5.863">
        <ele>1132.57</ele>
        <time>2018-05-06T07:56:53Z</time>
      </trkpt>
      <trkpt lat="45.49795" lon="5.86308">
        <ele>1134.97</ele>
        <time>2018-05-06T07:57:06Z</time>
      </trkpt>
      <trkpt lat="45.49795" lon="5.86323">
        <ele>1137.86</ele>
        <time>2018-05-06T07:57:20Z</time>
      </trkpt>
      <trkpt lat="45.49795" lon="5.86324">
        <ele>1137.86</ele>
        <time>2018-05-06T07:57:21Z</time>
      </trkpt>
      <trkpt lat="45.49789" lon="5.86335">
        <ele>1139.78</ele>
        <time>2018-05-06T07:57:34Z</time>
      </trkpt>
      <trkpt lat="45.49784" lon="5.86341">
        <ele>1140.26</ele>
        <time>2018-05-06T07:57:48Z</time>
      </trkpt>
      <trkpt lat="45.49782" lon="5.86342">
        <ele>1140.74</ele>
        <time>2018-05-06T07:57:51Z</time>
      </trkpt>
      <trkpt lat="45.49768" lon="5.8635">
        <ele>1140.74</ele>
        <time>2018-05-06T07:58:04Z</time>
      </trkpt>
      <trkpt lat="45.49764" lon="5.86351">
        <ele>1142.18</ele>
        <time>2018-05-06T07:58:18Z</time>
      </trkpt>
      <trkpt lat="45.49774" lon="5.8636">
        <ele>1143.14</ele>
        <time>2018-05-06T07:58:30Z</time>
      </trkpt>
      <trkpt lat="45.49797" lon="5.86375">
        <ele>1145.55</ele>
        <time>2018-05-06T07:58:47Z</time>
      </trkpt>
      <trkpt lat="45.49809" lon="5.86384">
        <ele>1146.99</ele>
        <time>2018-05-06T07:58:57Z</time>
      </trkpt>
      <trkpt lat="45.49805" lon="5.86397">
        <ele>1149.39</ele>
        <time>2018-05-06T07:59:10Z</time>
      </trkpt>
      <trkpt lat="45.49806" lon="5.86402">
        <ele>1151.32</ele>
        <time>2018-05-06T07:59:22Z</time>
      </trkpt>
      <trkpt lat="45.49805" lon="5.86407">
        <ele>1153.72</ele>
        <time>2018-05-06T07:59:33Z</time>
      </trkpt>
      <trkpt lat="45.49808" lon="5.86413">
        <ele>1155.64</ele>
        <time>2018-05-06T07:59:46Z</time>
      </trkpt>
      <trkpt lat="45.49805" lon="5.86425">
        <ele>1158.53</ele>
        <time>2018-05-06T07:59:58Z</time>
      </trkpt>
      <trkpt lat="45.49806" lon="5.8644">
        <ele>1159.97</ele>
        <time>2018-05-06T08:00:10Z</time>
      </trkpt>
      <trkpt lat="45.49806" lon="5.86454">
        <ele>1162.85</ele>
        <time>2018-05-06T08:00:23Z</time>
      </trkpt>
      <trkpt lat="45.49799" lon="5.86473">
        <ele>1166.22</ele>
        <time>2018-05-06T08:00:39Z</time>
      </trkpt>
      <trkpt lat="45.49806" lon="5.86486">
        <ele>1168.14</ele>
        <time>2018-05-06T08:00:52Z</time>
      </trkpt>
      <trkpt lat="45.4981" lon="5.86489">
        <ele>1169.1</ele>
        <time>2018-05-06T08:00:57Z</time>
      </trkpt>
      <trkpt lat="45.49817" lon="5.86508">
        <ele>1171.02</ele>
        <time>2018-05-06T08:01:13Z</time>
      </trkpt>
      <trkpt lat="45.49809" lon="5.86526">
        <ele>1173.43</ele>
        <time>2018-05-06T08:01:28Z</time>
      </trkpt>
      <trkpt lat="45.4981" lon="5.86542">
        <ele>1176.31</ele>
        <time>2018-05-06T08:01:44Z</time>
      </trkpt>
      <trkpt lat="45.49814" lon="5.86556">
        <ele>1178.23</ele>
        <time>2018-05-06T08:01:58Z</time>
      </trkpt>
      <trkpt lat="45.49817" lon="5.86569">
        <ele>1180.16</ele>
        <time>2018-05-06T08:02:10Z</time>
      </trkpt>
      <trkpt lat="45.49821" lon="5.86585">
        <ele>1181.6</ele>
        <time>2018-05-06T08:02:23Z</time>
      </trkpt>
      <trkpt lat="45.49832" lon="5.86613">
        <ele>1183.52</ele>
        <time>2018-05-06T08:02:40Z</time>
      </trkpt>
      <trkpt lat="45.49832" lon="5.86616">
        <ele>1183.52</ele>
        <time>2018-05-06T08:02:41Z</time>
      </trkpt>
      <trkpt lat="45.49837" lon="5.86631">
        <ele>1185.44</ele>
        <time>2018-05-06T08:02:54Z</time>
      </trkpt>
      <trkpt lat="45.49834" lon="5.86646">
        <ele>1187.37</ele>
        <time>2018-05-06T08:03:08Z</time>
      </trkpt>
      <trkpt lat="45.49819" lon="5.86663">
        <ele>1189.77</ele>
        <time>2018-05-06T08:03:24Z</time>
      </trkpt>
      <trkpt lat="45.49847" lon="5.86687">
        <ele>1191.69</ele>
        <time>2018-05-06T08:03:37Z</time>
      </trkpt>
      <trkpt lat="45.49854" lon="5.86718">
        <ele>1193.13</ele>
        <time>2018-05-06T08:03:53Z</time>
      </trkpt>
      <trkpt lat="45.49861" lon="5.86731">
        <ele>1194.58</ele>
        <time>2018-05-06T08:04:09Z</time>
      </trkpt>
      <trkpt lat="45.49863" lon="5.8674">
        <ele>1194.58</ele>
        <time>2018-05-06T08:04:33Z</time>
      </trkpt>
      <trkpt lat="45.49863" lon="5.8674">
        <ele>1192.65</ele>
        <time>2018-05-06T08:04:37Z</time>
      </trkpt>
      <trkpt lat="45.49863" lon="5.8674">
        <ele>1194.09</ele>
        <time>2018-05-06T08:04:38Z</time>
      </trkpt>
      <trkpt lat="45.49862" lon="5.86738">
        <ele>1194.58</ele>
        <time>2018-05-06T08:05:10Z</time>
      </trkpt>
      <trkpt lat="45.49861" lon="5.86741">
        <ele>1194.09</ele>
        <time>2018-05-06T08:05:35Z</time>
      </trkpt>
      <trkpt lat="45.49863" lon="5.86744">
        <ele>1194.09</ele>
        <time>2018-05-06T08:05:53Z</time>
      </trkpt>
      <trkpt lat="45.49861" lon="5.86742">
        <ele>1194.09</ele>
        <time>2018-05-06T08:06:16Z</time>
      </trkpt>
      <trkpt lat="45.49862" lon="5.86748">
        <ele>1194.09</ele>
        <time>2018-05-06T08:06:41Z</time>
      </trkpt>
      <trkpt lat="45.49861" lon="5.86752">
        <ele>1192.65</ele>
        <time>2018-05-06T08:06:59Z</time>
      </trkpt>
      <trkpt lat="45.49861" lon="5.86753">
        <ele>1194.09</ele>
        <time>2018-05-06T08:07:00Z</time>
      </trkpt>
      <trkpt lat="45.49862" lon="5.86756">
        <ele>1194.09</ele>
        <time>2018-05-06T08:07:23Z</time>
      </trkpt>
      <trkpt lat="45.49865" lon="5.86755">
        <ele>1194.58</ele>
        <time>2018-05-06T08:07:49Z</time>
      </trkpt>
      <trkpt lat="45.49866" lon="5.86762">
        <ele>1194.09</ele>
        <time>2018-05-06T08:08:15Z</time>
      </trkpt>
      <trkpt lat="45.49867" lon="5.86749">
        <ele>1194.09</ele>
        <time>2018-05-06T08:08:44Z</time>
      </trkpt>
      <trkpt lat="45.49867" lon="5.86755">
        <ele>1194.58</ele>
        <time>2018-05-06T08:09:09Z</time>
      </trkpt>
      <trkpt lat="45.49868" lon="5.86755">
        <ele>1194.58</ele>
        <time>2018-05-06T08:09:41Z</time>
      </trkpt>
      <trkpt lat="45.49866" lon="5.86759">
        <ele>1194.58</ele>
        <time>2018-05-06T08:10:11Z</time>
      </trkpt>
      <trkpt lat="45.49868" lon="5.86763">
        <ele>1195.06</ele>
        <time>2018-05-06T08:10:27Z</time>
      </trkpt>
      <trkpt lat="45.49864" lon="5.86761">
        <ele>1194.58</ele>
        <time>2018-05-06T08:10:40Z</time>
      </trkpt>
      <trkpt lat="45.49857" lon="5.8675">
        <ele>1194.58</ele>
        <time>2018-05-06T08:10:56Z</time>
      </trkpt>
      <trkpt lat="45.49852" lon="5.86751">
        <ele>1194.58</ele>
        <time>2018-05-06T08:11:19Z</time>
      </trkpt>
      <trkpt lat="45.4986" lon="5.86755">
        <ele>1195.54</ele>
        <time>2018-05-06T08:11:31Z</time>
      </trkpt>
      <trkpt lat="45.49859" lon="5.86756">
        <ele>1195.54</ele>
        <time>2018-05-06T08:11:48Z</time>
      </trkpt>
      <trkpt lat="45.49861" lon="5.86757">
        <ele>1196.02</ele>
        <time>2018-05-06T08:12:04Z</time>
      </trkpt>
      <trkpt lat="45.49863" lon="5.86748">
        <ele>1195.06</ele>
        <time>2018-05-06T08:12:16Z</time>
      </trkpt>
      <trkpt lat="45.49866" lon="5.86738">
        <ele>1195.54</ele>
        <time>2018-05-06T08:12:30Z</time>
      </trkpt>
      <trkpt lat="45.49864" lon="5.8673">
        <ele>1195.54</ele>
        <time>2018-05-06T08:12:48Z</time>
      </trkpt>
      <trkpt lat="45.49859" lon="5.86726">
        <ele>1195.06</ele>
        <time>2018-05-06T08:13:10Z</time>
      </trkpt>
      <trkpt lat="45.49864" lon="5.8673">
        <ele>1194.58</ele>
        <time>2018-05-06T08:13:26Z</time>
      </trkpt>
      <trkpt lat="45.49863" lon="5.86726">
        <ele>1194.09</ele>
        <time>2018-05-06T08:13:45Z</time>
      </trkpt>
      <trkpt lat="45.4986" lon="5.86724">
        <ele>1193.13</ele>
        <time>2018-05-06T08:14:14Z</time>
      </trkpt>
      <trkpt lat="45.49867" lon="5.86726">
        <ele>1193.61</ele>
        <time>2018-05-06T08:14:54Z</time>
      </trkpt>
      <trkpt lat="45.49879" lon="5.86726">
        <ele>1193.61</ele>
        <time>2018-05-06T08:15:27Z</time>
      </trkpt>
      <trkpt lat="45.49873" lon="5.86725">
        <ele>1193.61</ele>
        <time>2018-05-06T08:16:01Z</time>
      </trkpt>
      <trkpt lat="45.49861" lon="5.86732">
        <ele>1193.13</ele>
        <time>2018-05-06T08:16:25Z</time>
      </trkpt>
      <trkpt lat="45.49861" lon="5.86729">
        <ele>1192.65</ele>
        <time>2018-05-06T08:16:52Z</time>
      </trkpt>
      <trkpt lat="45.49862" lon="5.86726">
        <ele>1192.65</ele>
        <time>2018-05-06T08:17:02Z</time>
      </trkpt>
      <trkpt lat="45.49869" lon="5.86743">
        <ele>1192.65</ele>
        <time>2018-05-06T08:17:17Z</time>
      </trkpt>
      <trkpt lat="45.49862" lon="5.86754">
        <ele>1192.65</ele>
        <time>2018-05-06T08:17:32Z</time>
      </trkpt>
      <trkpt lat="45.49863" lon="5.86755">
        <ele>1192.17</ele>
        <time>2018-05-06T08:17:36Z</time>
      </trkpt>
      <trkpt lat="45.49864" lon="5.86738">
        <ele>1192.17</ele>
        <time>2018-05-06T08:17:49Z</time>
      </trkpt>
      <trkpt lat="45.49865" lon="5.86734">
        <ele>1192.17</ele>
        <time>2018-05-06T08:17:52Z</time>
      </trkpt>
      <trkpt lat="45.49867" lon="5.86728">
        <ele>1192.17</ele>
        <time>2018-05-06T08:17:58Z</time>
      </trkpt>
      <trkpt lat="45.49868" lon="5.86719">
        <ele>1192.17</ele>
        <time>2018-05-06T08:18:07Z</time>
      </trkpt>
      <trkpt lat="45.49858" lon="5.86703">
        <ele>1192.65</ele>
        <time>2018-05-06T08:18:38Z</time>
      </trkpt>
      <trkpt lat="45.49868" lon="5.86708">
        <ele>1192.17</ele>
        <time>2018-05-06T08:18:57Z</time>
      </trkpt>
      <trkpt lat="45.4987" lon="5.86701">
        <ele>1192.65</ele>
        <time>2018-05-06T08:19:06Z</time>
      </trkpt>
      <trkpt lat="45.49876" lon="5.86685">
        <ele>1193.61</ele>
        <time>2018-05-06T08:19:20Z</time>
      </trkpt>
      <trkpt lat="45.49876" lon="5.86684">
        <ele>1193.61</ele>
        <time>2018-05-06T08:19:21Z</time>
      </trkpt>
      <trkpt lat="45.49882" lon="5.86666">
        <ele>1195.06</ele>
        <time>2018-05-06T08:19:36Z</time>
      </trkpt>
      <trkpt lat="45.4989" lon="5.8665">
        <ele>1195.54</ele>
        <time>2018-05-06T08:19:50Z</time>
      </trkpt>
      <trkpt lat="45.4989" lon="5.86648">
        <ele>1196.02</ele>
        <time>2018-05-06T08:19:51Z</time>
      </trkpt>
      <trkpt lat="45.4989" lon="5.86634">
        <ele>1196.98</ele>
        <time>2018-05-06T08:20:00Z</time>
      </trkpt>
      <trkpt lat="45.49893" lon="5.86607">
        <ele>1197.94</ele>
        <time>2018-05-06T08:20:17Z</time>
      </trkpt>
      <trkpt lat="45.49902" lon="5.86582">
        <ele>1198.9</ele>
        <time>2018-05-06T08:20:32Z</time>
      </trkpt>
      <trkpt lat="45.49907" lon="5.86554">
        <ele>1200.82</ele>
        <time>2018-05-06T08:20:48Z</time>
      </trkpt>
      <trkpt lat="45.49906" lon="5.86543">
        <ele>1200.82</ele>
        <time>2018-05-06T08:20:53Z</time>
      </trkpt>
      <trkpt lat="45.49907" lon="5.86535">
        <ele>1201.79</ele>
        <time>2018-05-06T08:21:00Z</time>
      </trkpt>
      <trkpt lat="45.49922" lon="5.86509">
        <ele>1202.75</ele>
        <time>2018-05-06T08:21:16Z</time>
      </trkpt>
      <trkpt lat="45.49925" lon="5.86503">
        <ele>1203.71</ele>
        <time>2018-05-06T08:21:22Z</time>
      </trkpt>
      <trkpt lat="45.49933" lon="5.86487">
        <ele>1205.15</ele>
        <time>2018-05-06T08:21:38Z</time>
      </trkpt>
      <trkpt lat="45.49941" lon="5.86475">
        <ele>1205.63</ele>
        <time>2018-05-06T08:21:46Z</time>
      </trkpt>
      <trkpt lat="45.49956" lon="5.86454">
        <ele>1206.59</ele>
        <time>2018-05-06T08:22:00Z</time>
      </trkpt>
      <trkpt lat="45.49956" lon="5.86435">
        <ele>1207.07</ele>
        <time>2018-05-06T08:22:12Z</time>
      </trkpt>
      <trkpt lat="45.49956" lon="5.86416">
        <ele>1208.03</ele>
        <time>2018-05-06T08:22:25Z</time>
      </trkpt>
      <trkpt lat="45.4996" lon="5.86394">
        <ele>1210.44</ele>
        <time>2018-05-06T08:22:40Z</time>
      </trkpt>
      <trkpt lat="45.49966" lon="5.86377">
        <ele>1211.88</ele>
        <time>2018-05-06T08:22:51Z</time>
      </trkpt>
      <trkpt lat="45.49978" lon="5.86356">
        <ele>1213.8</ele>
        <time>2018-05-06T08:23:05Z</time>
      </trkpt>
      <trkpt lat="45.4998" lon="5.86349">
        <ele>1214.76</ele>
        <time>2018-05-06T08:23:10Z</time>
      </trkpt>
      <trkpt lat="45.49981" lon="5.86346">
        <ele>1214.76</ele>
        <time>2018-05-06T08:23:12Z</time>
      </trkpt>
      <trkpt lat="45.49988" lon="5.86327">
        <ele>1216.69</ele>
        <time>2018-05-06T08:23:25Z</time>
      </trkpt>
      <trkpt lat="45.49993" lon="5.86312">
        <ele>1217.65</ele>
        <time>2018-05-06T08:23:38Z</time>
      </trkpt>
      <trkpt lat="45.49994" lon="5.86311">
        <ele>1218.61</ele>
        <time>2018-05-06T08:23:39Z</time>
      </trkpt>
      <trkpt lat="45.50009" lon="5.8629">
        <ele>1220.53</ele>
        <time>2018-05-06T08:23:55Z</time>
      </trkpt>
      <trkpt lat="45.50018" lon="5.86276">
        <ele>1221.97</ele>
        <time>2018-05-06T08:24:08Z</time>
      </trkpt>
      <trkpt lat="45.50021" lon="5.86274">
        <ele>1222.45</ele>
        <time>2018-05-06T08:24:11Z</time>
      </trkpt>
      <trkpt lat="45.50031" lon="5.86254">
        <ele>1223.9</ele>
        <time>2018-05-06T08:24:26Z</time>
      </trkpt>
      <trkpt lat="45.50034" lon="5.8625">
        <ele>1224.86</ele>
        <time>2018-05-06T08:24:31Z</time>
      </trkpt>
      <trkpt lat="45.50036" lon="5.86248">
        <ele>1225.34</ele>
        <time>2018-05-06T08:24:33Z</time>
      </trkpt>
      <trkpt lat="45.50054" lon="5.86234">
        <ele>1226.3</ele>
        <time>2018-05-06T08:24:47Z</time>
      </trkpt>
      <trkpt lat="45.50063" lon="5.86226">
        <ele>1228.22</ele>
        <time>2018-05-06T08:25:00Z</time>
      </trkpt>
      <trkpt lat="45.50064" lon="5.86216">
        <ele>1228.7</ele>
        <time>2018-05-06T08:25:08Z</time>
      </trkpt>
      <trkpt lat="45.50063" lon="5.86204">
        <ele>1229.66</ele>
        <time>2018-05-06T08:25:16Z</time>
      </trkpt>
      <trkpt lat="45.50062" lon="5.86195">
        <ele>1230.62</ele>
        <time>2018-05-06T08:25:21Z</time>
      </trkpt>
      <trkpt lat="45.50062" lon="5.86172">
        <ele>1232.07</ele>
        <time>2018-05-06T08:25:36Z</time>
      </trkpt>
      <trkpt lat="45.5007" lon="5.86156">
        <ele>1233.51</ele>
        <time>2018-05-06T08:25:45Z</time>
      </trkpt>
      <trkpt lat="45.50075" lon="5.86129">
        <ele>1234.95</ele>
        <time>2018-05-06T08:25:56Z</time>
      </trkpt>
      <trkpt lat="45.50076" lon="5.86123">
        <ele>1234.95</ele>
        <time>2018-05-06T08:25:59Z</time>
      </trkpt>
      <trkpt lat="45.50083" lon="5.86113">
        <ele>1235.91</ele>
        <time>2018-05-06T08:26:07Z</time>
      </trkpt>
      <trkpt lat="45.50088" lon="5.86097">
        <ele>1236.87</ele>
        <time>2018-05-06T08:26:20Z</time>
      </trkpt>
      <trkpt lat="45.50089" lon="5.86095">
        <ele>1237.35</ele>
        <time>2018-05-06T08:26:21Z</time>
      </trkpt>
      <trkpt lat="45.501" lon="5.86078">
        <ele>1238.32</ele>
        <time>2018-05-06T08:26:34Z</time>
      </trkpt>
      <trkpt lat="45.50103" lon="5.86076">
        <ele>1238.8</ele>
        <time>2018-05-06T08:26:36Z</time>
      </trkpt>
      <trkpt lat="45.50111" lon="5.86058">
        <ele>1239.76</ele>
        <time>2018-05-06T08:26:47Z</time>
      </trkpt>
      <trkpt lat="45.50124" lon="5.86037">
        <ele>1241.2</ele>
        <time>2018-05-06T08:27:00Z</time>
      </trkpt>
      <trkpt lat="45.50136" lon="5.86019">
        <ele>1242.16</ele>
        <time>2018-05-06T08:27:14Z</time>
      </trkpt>
      <trkpt lat="45.5015" lon="5.86003">
        <ele>1244.08</ele>
        <time>2018-05-06T08:27:28Z</time>
      </trkpt>
      <trkpt lat="45.50152" lon="5.86002">
        <ele>1244.08</ele>
        <time>2018-05-06T08:27:30Z</time>
      </trkpt>
      <trkpt lat="45.50169" lon="5.85996">
        <ele>1244.56</ele>
        <time>2018-05-06T08:27:45Z</time>
      </trkpt>
      <trkpt lat="45.50177" lon="5.85994">
        <ele>1245.04</ele>
        <time>2018-05-06T08:27:56Z</time>
      </trkpt>
      <trkpt lat="45.50187" lon="5.85987">
        <ele>1245.53</ele>
        <time>2018-05-06T08:28:11Z</time>
      </trkpt>
      <trkpt lat="45.50203" lon="5.8599">
        <ele>1246.49</ele>
        <time>2018-05-06T08:28:30Z</time>
      </trkpt>
      <trkpt lat="45.5021" lon="5.85996">
        <ele>1246.01</ele>
        <time>2018-05-06T08:28:47Z</time>
      </trkpt>
      <trkpt lat="45.50213" lon="5.86001">
        <ele>1246.01</ele>
        <time>2018-05-06T08:29:00Z</time>
      </trkpt>
      <trkpt lat="45.50222" lon="5.86003">
        <ele>1246.97</ele>
        <time>2018-05-06T08:29:15Z</time>
      </trkpt>
      <trkpt lat="45.50226" lon="5.86">
        <ele>1246.49</ele>
        <time>2018-05-06T08:29:25Z</time>
      </trkpt>
      <trkpt lat="45.50228" lon="5.86001">
        <ele>1246.01</ele>
        <time>2018-05-06T08:29:29Z</time>
      </trkpt>
      <trkpt lat="45.50242" lon="5.86007">
        <ele>1245.53</ele>
        <time>2018-05-06T08:29:44Z</time>
      </trkpt>
      <trkpt lat="45.50247" lon="5.8601">
        <ele>1245.04</ele>
        <time>2018-05-06T08:29:49Z</time>
      </trkpt>
      <trkpt lat="45.50258" lon="5.86014">
        <ele>1244.56</ele>
        <time>2018-05-06T08:29:59Z</time>
      </trkpt>
      <trkpt lat="45.50261" lon="5.86017">
        <ele>1244.08</ele>
        <time>2018-05-06T08:30:02Z</time>
      </trkpt>
      <trkpt lat="45.50268" lon="5.86033">
        <ele>1246.01</ele>
        <time>2018-05-06T08:30:14Z</time>
      </trkpt>
      <trkpt lat="45.50263" lon="5.86061">
        <ele>1247.93</ele>
        <time>2018-05-06T08:30:31Z</time>
      </trkpt>
      <trkpt lat="45.5025" lon="5.86068">
        <ele>1251.29</ele>
        <time>2018-05-06T08:30:47Z</time>
      </trkpt>
      <trkpt lat="45.50238" lon="5.8607">
        <ele>1253.7</ele>
        <time>2018-05-06T08:31:03Z</time>
      </trkpt>
      <trkpt lat="45.50224" lon="5.86069">
        <ele>1257.06</ele>
        <time>2018-05-06T08:31:17Z</time>
      </trkpt>
      <trkpt lat="45.50215" lon="5.86072">
        <ele>1260.43</ele>
        <time>2018-05-06T08:31:34Z</time>
      </trkpt>
      <trkpt lat="45.50201" lon="5.86081">
        <ele>1263.31</ele>
        <time>2018-05-06T08:31:53Z</time>
      </trkpt>
      <trkpt lat="45.50194" lon="5.8609">
        <ele>1264.75</ele>
        <time>2018-05-06T08:32:01Z</time>
      </trkpt>
      <trkpt lat="45.50186" lon="5.86102">
        <ele>1268.12</ele>
        <time>2018-05-06T08:32:15Z</time>
      </trkpt>
      <trkpt lat="45.50184" lon="5.86117">
        <ele>1269.08</ele>
        <time>2018-05-06T08:32:27Z</time>
      </trkpt>
      <trkpt lat="45.50181" lon="5.86126">
        <ele>1271.96</ele>
        <time>2018-05-06T08:32:37Z</time>
      </trkpt>
      <trkpt lat="45.50181" lon="5.86134">
        <ele>1271.96</ele>
        <time>2018-05-06T08:32:43Z</time>
      </trkpt>
      <trkpt lat="45.50181" lon="5.86149">
        <ele>1273.4</ele>
        <time>2018-05-06T08:32:56Z</time>
      </trkpt>
      <trkpt lat="45.50178" lon="5.86151">
        <ele>1274.36</ele>
        <time>2018-05-06T08:33:11Z</time>
      </trkpt>
      <trkpt lat="45.50177" lon="5.86157">
        <ele>1275.81</ele>
        <time>2018-05-06T08:33:26Z</time>
      </trkpt>
      <trkpt lat="45.50178" lon="5.86158">
        <ele>1275.81</ele>
        <time>2018-05-06T08:33:30Z</time>
      </trkpt>
      <trkpt lat="45.50171" lon="5.86168">
        <ele>1277.25</ele>
        <time>2018-05-06T08:33:43Z</time>
      </trkpt>
      <trkpt lat="45.50163" lon="5.86182">
        <ele>1278.21</ele>
        <time>2018-05-06T08:33:57Z</time>
      </trkpt>
      <trkpt lat="45.50157" lon="5.86192">
        <ele>1278.21</ele>
        <time>2018-05-06T08:34:10Z</time>
      </trkpt>
      <trkpt lat="45.50152" lon="5.86209">
        <ele>1278.21</ele>
        <time>2018-05-06T08:34:18Z</time>
      </trkpt>
      <trkpt lat="45.5015" lon="5.86216">
        <ele>1278.21</ele>
        <time>2018-05-06T08:34:22Z</time>
      </trkpt>
      <trkpt lat="45.50148" lon="5.86221">
        <ele>1278.21</ele>
        <time>2018-05-06T08:34:28Z</time>
      </trkpt>
      <trkpt lat="45.50145" lon="5.86225">
        <ele>1277.73</ele>
        <time>2018-05-06T08:34:32Z</time>
      </trkpt>
      <trkpt lat="45.5014" lon="5.86228">
        <ele>1276.29</ele>
        <time>2018-05-06T08:34:39Z</time>
      </trkpt>
      <trkpt lat="45.50138" lon="5.86237">
        <ele>1275.33</ele>
        <time>2018-05-06T08:34:46Z</time>
      </trkpt>
      <trkpt lat="45.50137" lon="5.86248">
        <ele>1275.33</ele>
        <time>2018-05-06T08:34:53Z</time>
      </trkpt>
      <trkpt lat="45.50135" lon="5.86256">
        <ele>1275.33</ele>
        <time>2018-05-06T08:34:56Z</time>
      </trkpt>
      <trkpt lat="45.5013" lon="5.86285">
        <ele>1276.29</ele>
        <time>2018-05-06T08:35:09Z</time>
      </trkpt>
      <trkpt lat="45.50131" lon="5.86291">
        <ele>1277.73</ele>
        <time>2018-05-06T08:35:12Z</time>
      </trkpt>
      <trkpt lat="45.50132" lon="5.86311">
        <ele>1278.69</ele>
        <time>2018-05-06T08:35:25Z</time>
      </trkpt>
      <trkpt lat="45.50139" lon="5.86343">
        <ele>1282.06</ele>
        <time>2018-05-06T08:35:40Z</time>
      </trkpt>
      <trkpt lat="45.50144" lon="5.86362">
        <ele>1282.06</ele>
        <time>2018-05-06T08:35:52Z</time>
      </trkpt>
      <trkpt lat="45.50144" lon="5.86368">
        <ele>1285.42</ele>
        <time>2018-05-06T08:36:02Z</time>
      </trkpt>
      <trkpt lat="45.5014" lon="5.86386">
        <ele>1287.82</ele>
        <time>2018-05-06T08:36:17Z</time>
      </trkpt>
      <trkpt lat="45.50144" lon="5.86404">
        <ele>1288.78</ele>
        <time>2018-05-06T08:36:31Z</time>
      </trkpt>
      <trkpt lat="45.5015" lon="5.86426">
        <ele>1288.78</ele>
        <time>2018-05-06T08:36:43Z</time>
      </trkpt>
      <trkpt lat="45.50153" lon="5.86444">
        <ele>1289.27</ele>
        <time>2018-05-06T08:36:55Z</time>
      </trkpt>
      <trkpt lat="45.50156" lon="5.86454">
        <ele>1290.71</ele>
        <time>2018-05-06T08:37:09Z</time>
      </trkpt>
      <trkpt lat="45.50157" lon="5.86481">
        <ele>1292.63</ele>
        <time>2018-05-06T08:37:23Z</time>
      </trkpt>
      <trkpt lat="45.50162" lon="5.86499">
        <ele>1293.59</ele>
        <time>2018-05-06T08:37:36Z</time>
      </trkpt>
      <trkpt lat="45.50164" lon="5.86501">
        <ele>1294.55</ele>
        <time>2018-05-06T08:37:44Z</time>
      </trkpt>
      <trkpt lat="45.50174" lon="5.86508">
        <ele>1295.51</ele>
        <time>2018-05-06T08:37:55Z</time>
      </trkpt>
      <trkpt lat="45.50177" lon="5.86511">
        <ele>1297.44</ele>
        <time>2018-05-06T08:38:07Z</time>
      </trkpt>
      <trkpt lat="45.50175" lon="5.86518">
        <ele>1297.44</ele>
        <time>2018-05-06T08:38:19Z</time>
      </trkpt>
      <trkpt lat="45.50176" lon="5.86519">
        <ele>1299.36</ele>
        <time>2018-05-06T08:38:22Z</time>
      </trkpt>
      <trkpt lat="45.5019" lon="5.86532">
        <ele>1302.24</ele>
        <time>2018-05-06T08:38:37Z</time>
      </trkpt>
      <trkpt lat="45.50205" lon="5.86577">
        <ele>1303.69</ele>
        <time>2018-05-06T08:38:48Z</time>
      </trkpt>
      <trkpt lat="45.50209" lon="5.86582">
        <ele>1305.61</ele>
        <time>2018-05-06T08:38:59Z</time>
      </trkpt>
      <trkpt lat="45.50219" lon="5.86569">
        <ele>1306.57</ele>
        <time>2018-05-06T08:39:18Z</time>
      </trkpt>
      <trkpt lat="45.50227" lon="5.86573">
        <ele>1306.09</ele>
        <time>2018-05-06T08:39:43Z</time>
      </trkpt>
      <trkpt lat="45.50205" lon="5.86578">
        <ele>1306.09</ele>
        <time>2018-05-06T08:40:11Z</time>
      </trkpt>
      <trkpt lat="45.50219" lon="5.8658">
        <ele>1307.05</ele>
        <time>2018-05-06T08:40:22Z</time>
      </trkpt>
      <trkpt lat="45.50224" lon="5.86583">
        <ele>1310.9</ele>
        <time>2018-05-06T08:40:35Z</time>
      </trkpt>
      <trkpt lat="45.50229" lon="5.86576">
        <ele>1312.34</ele>
        <time>2018-05-06T08:40:47Z</time>
      </trkpt>
      <trkpt lat="45.50227" lon="5.86582">
        <ele>1313.78</ele>
        <time>2018-05-06T08:41:01Z</time>
      </trkpt>
      <trkpt lat="45.50229" lon="5.8659">
        <ele>1315.7</ele>
        <time>2018-05-06T08:41:14Z</time>
      </trkpt>
      <trkpt lat="45.50242" lon="5.86586">
        <ele>1318.1</ele>
        <time>2018-05-06T08:41:28Z</time>
      </trkpt>
      <trkpt lat="45.5024" lon="5.86593">
        <ele>1320.99</ele>
        <time>2018-05-06T08:41:36Z</time>
      </trkpt>
      <trkpt lat="45.5024" lon="5.86594">
        <ele>1323.87</ele>
        <time>2018-05-06T08:41:47Z</time>
      </trkpt>
      <trkpt lat="45.50249" lon="5.86595">
        <ele>1324.35</ele>
        <time>2018-05-06T08:42:01Z</time>
      </trkpt>
      <trkpt lat="45.50255" lon="5.86612">
        <ele>1327.72</ele>
        <time>2018-05-06T08:42:14Z</time>
      </trkpt>
      <trkpt lat="45.50262" lon="5.86615">
        <ele>1329.64</ele>
        <time>2018-05-06T08:42:30Z</time>
      </trkpt>
      <trkpt lat="45.50265" lon="5.86617">
        <ele>1332.52</ele>
        <time>2018-05-06T08:42:43Z</time>
      </trkpt>
      <trkpt lat="45.50273" lon="5.86619">
        <ele>1334.93</ele>
        <time>2018-05-06T08:42:57Z</time>
      </trkpt>
      <trkpt lat="45.50279" lon="5.86622">
        <ele>1336.85</ele>
        <time>2018-05-06T08:43:09Z</time>
      </trkpt>
      <trkpt lat="45.50282" lon="5.86623">
        <ele>1338.77</ele>
        <time>2018-05-06T08:43:21Z</time>
      </trkpt>
      <trkpt lat="45.50289" lon="5.86626">
        <ele>1340.7</ele>
        <time>2018-05-06T08:43:34Z</time>
      </trkpt>
      <trkpt lat="45.50299" lon="5.86628">
        <ele>1343.58</ele>
        <time>2018-05-06T08:43:48Z</time>
      </trkpt>
      <trkpt lat="45.50306" lon="5.8663">
        <ele>1345.5</ele>
        <time>2018-05-06T08:44:00Z</time>
      </trkpt>
      <trkpt lat="45.50309" lon="5.86634">
        <ele>1347.43</ele>
        <time>2018-05-06T08:44:12Z</time>
      </trkpt>
      <trkpt lat="45.50321" lon="5.86633">
        <ele>1349.83</ele>
        <time>2018-05-06T08:44:25Z</time>
      </trkpt>
      <trkpt lat="45.50332" lon="5.86631">
        <ele>1352.23</ele>
        <time>2018-05-06T08:44:38Z</time>
      </trkpt>
      <trkpt lat="45.50343" lon="5.86627">
        <ele>1355.6</ele>
        <time>2018-05-06T08:44:53Z</time>
      </trkpt>
      <trkpt lat="45.50349" lon="5.86625">
        <ele>1358</ele>
        <time>2018-05-06T08:45:06Z</time>
      </trkpt>
      <trkpt lat="45.50353" lon="5.86623">
        <ele>1358.96</ele>
        <time>2018-05-06T08:45:18Z</time>
      </trkpt>
      <trkpt lat="45.50364" lon="5.86617">
        <ele>1360.88</ele>
        <time>2018-05-06T08:45:28Z</time>
      </trkpt>
      <trkpt lat="45.50373" lon="5.86612">
        <ele>1362.81</ele>
        <time>2018-05-06T08:45:41Z</time>
      </trkpt>
      <trkpt lat="45.5038" lon="5.8661">
        <ele>1364.25</ele>
        <time>2018-05-06T08:45:54Z</time>
      </trkpt>
      <trkpt lat="45.50389" lon="5.86609">
        <ele>1367.13</ele>
        <time>2018-05-06T08:46:07Z</time>
      </trkpt>
      <trkpt lat="45.50395" lon="5.86616">
        <ele>1369.54</ele>
        <time>2018-05-06T08:46:20Z</time>
      </trkpt>
      <trkpt lat="45.50403" lon="5.86612">
        <ele>1372.9</ele>
        <time>2018-05-06T08:46:33Z</time>
      </trkpt>
      <trkpt lat="45.5041" lon="5.86615">
        <ele>1375.3</ele>
        <time>2018-05-06T08:46:45Z</time>
      </trkpt>
      <trkpt lat="45.50413" lon="5.86621">
        <ele>1377.71</ele>
        <time>2018-05-06T08:47:00Z</time>
      </trkpt>
      <trkpt lat="45.50418" lon="5.86626">
        <ele>1379.15</ele>
        <time>2018-05-06T08:47:14Z</time>
      </trkpt>
      <trkpt lat="45.50421" lon="5.86626">
        <ele>1381.07</ele>
        <time>2018-05-06T08:47:26Z</time>
      </trkpt>
      <trkpt lat="45.50428" lon="5.86623">
        <ele>1382.51</ele>
        <time>2018-05-06T08:47:41Z</time>
      </trkpt>
      <trkpt lat="45.50433" lon="5.86621">
        <ele>1385.88</ele>
        <time>2018-05-06T08:47:52Z</time>
      </trkpt>
      <trkpt lat="45.50439" lon="5.86622">
        <ele>1387.8</ele>
        <time>2018-05-06T08:48:05Z</time>
      </trkpt>
      <trkpt lat="45.50441" lon="5.86626">
        <ele>1390.2</ele>
        <time>2018-05-06T08:48:17Z</time>
      </trkpt>
      <trkpt lat="45.50445" lon="5.86626">
        <ele>1391.65</ele>
        <time>2018-05-06T08:48:30Z</time>
      </trkpt>
      <trkpt lat="45.5045" lon="5.86623">
        <ele>1393.57</ele>
        <time>2018-05-06T08:48:44Z</time>
      </trkpt>
      <trkpt lat="45.50454" lon="5.86624">
        <ele>1394.53</ele>
        <time>2018-05-06T08:48:59Z</time>
      </trkpt>
      <trkpt lat="45.5046" lon="5.86621">
        <ele>1397.41</ele>
        <time>2018-05-06T08:49:13Z</time>
      </trkpt>
      <trkpt lat="45.50464" lon="5.86627">
        <ele>1399.82</ele>
        <time>2018-05-06T08:49:24Z</time>
      </trkpt>
      <trkpt lat="45.5046" lon="5.86635">
        <ele>1402.7</ele>
        <time>2018-05-06T08:49:39Z</time>
      </trkpt>
      <trkpt lat="45.5046" lon="5.86641">
        <ele>1403.66</ele>
        <time>2018-05-06T08:49:51Z</time>
      </trkpt>
      <trkpt lat="45.50464" lon="5.86653">
        <ele>1403.66</ele>
        <time>2018-05-06T08:50:04Z</time>
      </trkpt>
      <trkpt lat="45.50466" lon="5.86655">
        <ele>1404.14</ele>
        <time>2018-05-06T08:50:20Z</time>
      </trkpt>
      <trkpt lat="45.50467" lon="5.86656">
        <ele>1403.18</ele>
        <time>2018-05-06T08:50:43Z</time>
      </trkpt>
      <trkpt lat="45.50468" lon="5.86661">
        <ele>1396.93</ele>
        <time>2018-05-06T08:50:56Z</time>
      </trkpt>
      <trkpt lat="45.50468" lon="5.86661">
        <ele>1411.83</ele>
        <time>2018-05-06T08:50:57Z</time>
      </trkpt>
      <trkpt lat="45.50468" lon="5.86661">
        <ele>1404.14</ele>
        <time>2018-05-06T08:50:58Z</time>
      </trkpt>
      <trkpt lat="45.5047" lon="5.86658">
        <ele>1404.14</ele>
        <time>2018-05-06T08:51:18Z</time>
      </trkpt>
      <trkpt lat="45.50471" lon="5.86655">
        <ele>1401.26</ele>
        <time>2018-05-06T08:51:34Z</time>
      </trkpt>
      <trkpt lat="45.50471" lon="5.86655">
        <ele>1405.1</ele>
        <time>2018-05-06T08:51:35Z</time>
      </trkpt>
      <trkpt lat="45.5047" lon="5.86656">
        <ele>1400.3</ele>
        <time>2018-05-06T08:51:36Z</time>
      </trkpt>
      <trkpt lat="45.5047" lon="5.86656">
        <ele>1407.99</ele>
        <time>2018-05-06T08:51:37Z</time>
      </trkpt>
      <trkpt lat="45.5047" lon="5.86657">
        <ele>1407.03</ele>
        <time>2018-05-06T08:51:38Z</time>
      </trkpt>
      <trkpt lat="45.5047" lon="5.86657">
        <ele>1405.58</ele>
        <time>2018-05-06T08:51:40Z</time>
      </trkpt>
      <trkpt lat="45.5047" lon="5.86659">
        <ele>1402.22</ele>
        <time>2018-05-06T08:51:53Z</time>
      </trkpt>
      <trkpt lat="45.50469" lon="5.86659">
        <ele>1405.58</ele>
        <time>2018-05-06T08:51:54Z</time>
      </trkpt>
      <trkpt lat="45.50469" lon="5.86659">
        <ele>1405.58</ele>
        <time>2018-05-06T08:51:55Z</time>
      </trkpt>
      <trkpt lat="45.50469" lon="5.86659">
        <ele>1412.79</ele>
        <time>2018-05-06T08:51:56Z</time>
      </trkpt>
      <trkpt lat="45.50468" lon="5.86658">
        <ele>1405.1</ele>
        <time>2018-05-06T08:51:57Z</time>
      </trkpt>
      <trkpt lat="45.50467" lon="5.86658">
        <ele>1411.83</ele>
        <time>2018-05-06T08:52:03Z</time>
      </trkpt>
      <trkpt lat="45.50467" lon="5.86657">
        <ele>1407.99</ele>
        <time>2018-05-06T08:52:04Z</time>
      </trkpt>
      <trkpt lat="45.50468" lon="5.86657">
        <ele>1404.14</ele>
        <time>2018-05-06T08:52:07Z</time>
      </trkpt>
      <trkpt lat="45.50468" lon="5.86657">
        <ele>1411.35</ele>
        <time>2018-05-06T08:52:08Z</time>
      </trkpt>
      <trkpt lat="45.50468" lon="5.86657">
        <ele>1407.51</ele>
        <time>2018-05-06T08:52:09Z</time>
      </trkpt>
      <trkpt lat="45.50469" lon="5.86657">
        <ele>1400.78</ele>
        <time>2018-05-06T08:52:11Z</time>
      </trkpt>
      <trkpt lat="45.5047" lon="5.86657">
        <ele>1400.78</ele>
        <time>2018-05-06T08:52:12Z</time>
      </trkpt>
      <trkpt lat="45.50469" lon="5.86657">
        <ele>1408.47</ele>
        <time>2018-05-06T08:52:16Z</time>
      </trkpt>
      <trkpt lat="45.50469" lon="5.86657">
        <ele>1408.47</ele>
        <time>2018-05-06T08:52:17Z</time>
      </trkpt>
      <trkpt lat="45.50469" lon="5.86654">
        <ele>1410.87</ele>
        <time>2018-05-06T08:52:27Z</time>
      </trkpt>
      <trkpt lat="45.50472" lon="5.86655">
        <ele>1410.39</ele>
        <time>2018-05-06T08:52:40Z</time>
      </trkpt>
      <trkpt lat="45.50473" lon="5.86656">
        <ele>1413.76</ele>
        <time>2018-05-06T08:52:53Z</time>
      </trkpt>
      <trkpt lat="45.50478" lon="5.86657">
        <ele>1414.24</ele>
        <time>2018-05-06T08:53:04Z</time>
      </trkpt>
      <trkpt lat="45.50485" lon="5.86658">
        <ele>1415.68</ele>
        <time>2018-05-06T08:53:18Z</time>
      </trkpt>
      <trkpt lat="45.50484" lon="5.8665">
        <ele>1417.6</ele>
        <time>2018-05-06T08:53:32Z</time>
      </trkpt>
      <trkpt lat="45.50485" lon="5.86647">
        <ele>1419.04</ele>
        <time>2018-05-06T08:53:43Z</time>
      </trkpt>
      <trkpt lat="45.50485" lon="5.86647">
        <ele>1423.37</ele>
        <time>2018-05-06T08:53:45Z</time>
      </trkpt>
      <trkpt lat="45.50485" lon="5.86646">
        <ele>1420.49</ele>
        <time>2018-05-06T08:53:46Z</time>
      </trkpt>
      <trkpt lat="45.50486" lon="5.86644">
        <ele>1421.93</ele>
        <time>2018-05-06T08:53:59Z</time>
      </trkpt>
      <trkpt lat="45.50487" lon="5.86638">
        <ele>1424.33</ele>
        <time>2018-05-06T08:54:11Z</time>
      </trkpt>
      <trkpt lat="45.50489" lon="5.86633">
        <ele>1425.29</ele>
        <time>2018-05-06T08:54:24Z</time>
      </trkpt>
      <trkpt lat="45.50492" lon="5.86633">
        <ele>1424.81</ele>
        <time>2018-05-06T08:54:40Z</time>
      </trkpt>
      <trkpt lat="45.50498" lon="5.86638">
        <ele>1423.85</ele>
        <time>2018-05-06T08:54:52Z</time>
      </trkpt>
      <trkpt lat="45.505" lon="5.86641">
        <ele>1426.25</ele>
        <time>2018-05-06T08:54:57Z</time>
      </trkpt>
      <trkpt lat="45.50501" lon="5.86642">
        <ele>1424.33</ele>
        <time>2018-05-06T08:55:00Z</time>
      </trkpt>
      <trkpt lat="45.50509" lon="5.86646">
        <ele>1424.81</ele>
        <time>2018-05-06T08:55:14Z</time>
      </trkpt>
      <trkpt lat="45.5051" lon="5.86646">
        <ele>1426.25</ele>
        <time>2018-05-06T08:55:18Z</time>
      </trkpt>
      <trkpt lat="45.50521" lon="5.86647">
        <ele>1425.77</ele>
        <time>2018-05-06T08:55:32Z</time>
      </trkpt>
      <trkpt lat="45.50525" lon="5.86649">
        <ele>1424.81</ele>
        <time>2018-05-06T08:55:45Z</time>
      </trkpt>
      <trkpt lat="45.50527" lon="5.8665">
        <ele>1428.18</ele>
        <time>2018-05-06T08:55:46Z</time>
      </trkpt>
      <trkpt lat="45.50533" lon="5.86651">
        <ele>1429.14</ele>
        <time>2018-05-06T08:55:59Z</time>
      </trkpt>
      <trkpt lat="45.50534" lon="5.86651">
        <ele>1432.5</ele>
        <time>2018-05-06T08:56:06Z</time>
      </trkpt>
      <trkpt lat="45.50536" lon="5.86652">
        <ele>1426.73</ele>
        <time>2018-05-06T08:56:11Z</time>
      </trkpt>
      <trkpt lat="45.50537" lon="5.86652">
        <ele>1431.54</ele>
        <time>2018-05-06T08:56:12Z</time>
      </trkpt>
      <trkpt lat="45.50536" lon="5.86649">
        <ele>1435.39</ele>
        <time>2018-05-06T08:56:19Z</time>
      </trkpt>
      <trkpt lat="45.50537" lon="5.86647">
        <ele>1432.5</ele>
        <time>2018-05-06T08:56:34Z</time>
      </trkpt>
      <trkpt lat="45.50537" lon="5.86646">
        <ele>1426.25</ele>
        <time>2018-05-06T08:56:36Z</time>
      </trkpt>
      <trkpt lat="45.50538" lon="5.86646">
        <ele>1440.19</ele>
        <time>2018-05-06T08:56:37Z</time>
      </trkpt>
      <trkpt lat="45.50538" lon="5.86644">
        <ele>1432.98</ele>
        <time>2018-05-06T08:56:38Z</time>
      </trkpt>
      <trkpt lat="45.50538" lon="5.86643">
        <ele>1433.46</ele>
        <time>2018-05-06T08:56:56Z</time>
      </trkpt>
      <trkpt lat="45.50544" lon="5.86641">
        <ele>1433.46</ele>
        <time>2018-05-06T08:57:19Z</time>
      </trkpt>
      <trkpt lat="45.50544" lon="5.8664">
        <ele>1433.46</ele>
        <time>2018-05-06T08:57:37Z</time>
      </trkpt>
    </trkseg>
  </trk>
</gpx>